sensor_id;sensor_type;location;lat;lon;timestamp;pressure;altitude;pressure_sealevel;temperature;humidity
64340;BME280;63709;53.258;-8.814;2023-04-07T00:02:16;102084.41;;;9.27;100.00
64340;BME280;63709;53.258;-8.814;2023-04-07T00:04:42;102095.63;;;9.33;100.00
64340;BME280;63709;53.258;-8.814;2023-04-07T00:07:07;102092.34;;;9.28;100.00
64340;BME280;63709;53.258;-8.814;2023-04-07T00:09:34;102100.38;;;9.09;100.00
64340;BME280;63709;53.258;-8.814;2023-04-07T00:12:01;102095.41;;;9.02;100.00
64340;BME280;63709;53.258;-8.814;2023-04-07T00:14:27;102087.94;;;8.91;100.00
64340;BME280;63709;53.258;-8.814;2023-04-07T00:16:53;102095.56;;;8.99;100.00
64340;BME280;63709;53.258;-8.814;2023-04-07T00:19:19;102074.03;;;8.84;100.00
64340;BME280;63709;53.258;-8.814;2023-04-07T00:21:45;102102.03;;;8.93;100.00
64340;BME280;63709;53.258;-8.814;2023-04-07T00:24:11;102091.25;;;8.77;100.00
64340;BME280;63709;53.258;-8.814;2023-04-07T00:26:37;102096.28;;;8.83;100.00
64340;BME280;63709;53.258;-8.814;2023-04-07T00:29:02;102100.44;;;8.89;100.00
64340;BME280;63709;53.258;-8.814;2023-04-07T00:31:28;102090.59;;;8.91;100.00
64340;BME280;63709;53.258;-8.814;2023-04-07T00:33:54;102097.34;;;8.98;100.00
64340;BME280;63709;53.258;-8.814;2023-04-07T00:36:20;102097.41;;;8.96;100.00
64340;BME280;63709;53.258;-8.814;2023-04-07T00:38:46;102092.03;;;8.98;100.00
64340;BME280;63709;53.258;-8.814;2023-04-07T00:41:11;102077.06;;;8.95;100.00
64340;BME280;63709;53.258;-8.814;2023-04-07T00:43:37;102082.59;;;9.10;100.00
64340;BME280;63709;53.258;-8.814;2023-04-07T00:46:05;102083.34;;;8.94;100.00
64340;BME280;63709;53.258;-8.814;2023-04-07T00:48:31;102077.41;;;9.07;100.00
64340;BME280;63709;53.258;-8.814;2023-04-07T00:50:56;102083.53;;;9.09;100.00
64340;BME280;63709;53.258;-8.814;2023-04-07T00:53:23;102080.06;;;9.07;100.00
64340;BME280;63709;53.258;-8.814;2023-04-07T00:55:49;102074.41;;;8.95;100.00
64340;BME280;63709;53.258;-8.814;2023-04-07T00:58:15;102059.56;;;8.71;100.00
64340;BME280;63709;53.258;-8.814;2023-04-07T01:01:03;102066.56;;;8.55;100.00
64340;BME280;63709;53.258;-8.814;2023-04-07T01:03:40;102070.41;;;8.68;100.00
64340;BME280;63709;53.258;-8.814;2023-04-07T01:06:13;102070.81;;;8.59;100.00
64340;BME280;63709;53.258;-8.814;2023-04-07T01:13:47;102070.94;;;8.75;100.00
64340;BME280;63709;53.258;-8.814;2023-04-07T01:16:25;102076.94;;;8.61;100.00
64340;BME280;63709;53.258;-8.814;2023-04-07T01:18:54;102060.88;;;8.62;100.00
64340;BME280;63709;53.258;-8.814;2023-04-07T01:21:24;102067.16;;;8.61;100.00
64340;BME280;63709;53.258;-8.814;2023-04-07T01:26:31;102072.97;;;8.51;100.00
64340;BME280;63709;53.258;-8.814;2023-04-07T01:31:54;102064.72;;;8.57;100.00
64340;BME280;63709;53.258;-8.814;2023-04-07T01:34:21;102055.28;;;8.50;100.00
64340;BME280;63709;53.258;-8.814;2023-04-07T01:36:49;102050.88;;;8.48;100.00
64340;BME280;63709;53.258;-8.814;2023-04-07T01:39:16;102071.63;;;8.61;100.00
64340;BME280;63709;53.258;-8.814;2023-04-07T01:41:43;102076.00;;;8.62;100.00
64340;BME280;63709;53.258;-8.814;2023-04-07T01:44:10;102078.44;;;8.66;100.00
64340;BME280;63709;53.258;-8.814;2023-04-07T01:46:36;102061.97;;;8.58;100.00
64340;BME280;63709;53.258;-8.814;2023-04-07T01:49:02;102051.41;;;8.57;100.00
64340;BME280;63709;53.258;-8.814;2023-04-07T01:51:29;102058.44;;;8.58;100.00
64340;BME280;63709;53.258;-8.814;2023-04-07T01:53:55;102068.00;;;8.62;100.00
64340;BME280;63709;53.258;-8.814;2023-04-07T01:56:23;102069.00;;;8.59;100.00
64340;BME280;63709;53.258;-8.814;2023-04-07T01:58:49;102066.06;;;8.46;100.00
64340;BME280;63709;53.258;-8.814;2023-04-07T02:01:15;102064.00;;;8.53;100.00
64340;BME280;63709;53.258;-8.814;2023-04-07T02:04:03;102061.09;;;8.39;100.00
64340;BME280;63709;53.258;-8.814;2023-04-07T02:06:39;102038.19;;;8.16;100.00
64340;BME280;63709;53.258;-8.814;2023-04-07T02:09:09;102058.22;;;8.23;100.00
64340;BME280;63709;53.258;-8.814;2023-04-07T02:11:36;102044.03;;;8.04;100.00
64340;BME280;63709;53.258;-8.814;2023-04-07T02:14:03;102036.44;;;8.15;100.00
64340;BME280;63709;53.258;-8.814;2023-04-07T02:16:33;102049.06;;;8.10;100.00
64340;BME280;63709;53.258;-8.814;2023-04-07T02:19:00;102059.03;;;8.25;100.00
64340;BME280;63709;53.258;-8.814;2023-04-07T02:21:27;102060.25;;;8.37;100.00
64340;BME280;63709;53.258;-8.814;2023-04-07T02:23:55;102062.91;;;8.38;100.00
64340;BME280;63709;53.258;-8.814;2023-04-07T02:26:21;102059.16;;;8.42;100.00
64340;BME280;63709;53.258;-8.814;2023-04-07T02:28:46;102055.69;;;8.40;100.00
64340;BME280;63709;53.258;-8.814;2023-04-07T02:31:11;102042.06;;;8.28;100.00
64340;BME280;63709;53.258;-8.814;2023-04-07T02:33:38;102043.56;;;8.33;100.00
64340;BME280;63709;53.258;-8.814;2023-04-07T02:36:04;102044.34;;;8.16;100.00
64340;BME280;63709;53.258;-8.814;2023-04-07T02:38:30;102049.84;;;8.32;100.00
64340;BME280;63709;53.258;-8.814;2023-04-07T02:40:56;102050.47;;;8.39;100.00
64340;BME280;63709;53.258;-8.814;2023-04-07T02:43:23;102046.22;;;8.33;100.00
64340;BME280;63709;53.258;-8.814;2023-04-07T02:45:50;102012.63;;;8.12;100.00
64340;BME280;63709;53.258;-8.814;2023-04-07T02:48:16;102028.19;;;8.21;100.00
64340;BME280;63709;53.258;-8.814;2023-04-07T02:50:47;102039.75;;;8.20;100.00
64340;BME280;63709;53.258;-8.814;2023-04-07T02:53:13;102041.22;;;8.27;100.00
64340;BME280;63709;53.258;-8.814;2023-04-07T02:55:39;102034.81;;;8.31;100.00
64340;BME280;63709;53.258;-8.814;2023-04-07T02:58:04;102038.34;;;8.32;100.00
64340;BME280;63709;53.258;-8.814;2023-04-07T03:00:31;102026.28;;;8.23;100.00
64340;BME280;63709;53.258;-8.814;2023-04-07T03:02:57;102026.25;;;8.24;100.00
64340;BME280;63709;53.258;-8.814;2023-04-07T03:05:23;102029.63;;;8.28;100.00
64340;BME280;63709;53.258;-8.814;2023-04-07T03:07:49;102031.91;;;8.17;100.00
64340;BME280;63709;53.258;-8.814;2023-04-07T03:10:15;102026.28;;;8.04;100.00
64340;BME280;63709;53.258;-8.814;2023-04-07T03:12:42;102014.19;;;7.97;100.00
64340;BME280;63709;53.258;-8.814;2023-04-07T03:15:09;102029.66;;;8.08;100.00
64340;BME280;63709;53.258;-8.814;2023-04-07T03:17:34;102009.19;;;8.10;100.00
64340;BME280;63709;53.258;-8.814;2023-04-07T03:20:00;102005.69;;;8.09;100.00
64340;BME280;63709;53.258;-8.814;2023-04-07T03:22:27;102029.63;;;8.28;100.00
64340;BME280;63709;53.258;-8.814;2023-04-07T03:24:53;102007.00;;;8.19;100.00
64340;BME280;63709;53.258;-8.814;2023-04-07T03:27:19;102008.75;;;8.19;100.00
64340;BME280;63709;53.258;-8.814;2023-04-07T03:29:45;102011.91;;;8.08;100.00
64340;BME280;63709;53.258;-8.814;2023-04-07T03:32:13;102013.69;;;8.08;100.00
64340;BME280;63709;53.258;-8.814;2023-04-07T03:34:38;102018.03;;;8.10;100.00
64340;BME280;63709;53.258;-8.814;2023-04-07T03:37:07;102011.91;;;8.08;100.00
64340;BME280;63709;53.258;-8.814;2023-04-07T03:39:33;102001.94;;;8.13;100.00
64340;BME280;63709;53.258;-8.814;2023-04-07T03:42:02;101989.78;;;8.08;100.00
64340;BME280;63709;53.258;-8.814;2023-04-07T03:44:27;102002.19;;;7.88;100.00
64340;BME280;63709;53.258;-8.814;2023-04-07T03:46:53;101987.69;;;7.95;100.00
64340;BME280;63709;53.258;-8.814;2023-04-07T03:49:19;102003.75;;;8.13;100.00
64340;BME280;63709;53.258;-8.814;2023-04-07T03:51:45;102003.88;;;8.10;100.00
64340;BME280;63709;53.258;-8.814;2023-04-07T03:54:10;102000.28;;;8.11;100.00
64340;BME280;63709;53.258;-8.814;2023-04-07T03:56:36;101981.28;;;7.99;100.00
64340;BME280;63709;53.258;-8.814;2023-04-07T03:59:02;101995.91;;;7.89;100.00
64340;BME280;63709;53.258;-8.814;2023-04-07T04:01:29;101980.66;;;7.94;100.00
64340;BME280;63709;53.258;-8.814;2023-04-07T04:03:55;101996.03;;;8.07;100.00
64340;BME280;63709;53.258;-8.814;2023-04-07T04:06:22;101997.31;;;7.98;100.00
64340;BME280;63709;53.258;-8.814;2023-04-07T04:08:48;101972.69;;;7.74;100.00
64340;BME280;63709;53.258;-8.814;2023-04-07T04:11:14;101994.47;;;7.82;100.00
64340;BME280;63709;53.258;-8.814;2023-04-07T04:13:41;101987.31;;;7.84;100.00
64340;BME280;63709;53.258;-8.814;2023-04-07T04:16:07;101989.31;;;7.79;100.00
64340;BME280;63709;53.258;-8.814;2023-04-07T04:18:33;101980.66;;;7.74;100.00
64340;BME280;63709;53.258;-8.814;2023-04-07T04:20:59;101977.13;;;7.73;100.00
64340;BME280;63709;53.258;-8.814;2023-04-07T04:23:24;101954.16;;;7.52;100.00
64340;BME280;63709;53.258;-8.814;2023-04-07T04:25:50;101957.91;;;7.48;100.00
64340;BME280;63709;53.258;-8.814;2023-04-07T04:28:17;101963.81;;;7.55;100.00
64340;BME280;63709;53.258;-8.814;2023-04-07T04:30:42;101948.69;;;7.57;100.00
64340;BME280;63709;53.258;-8.814;2023-04-07T04:33:08;101965.22;;;7.82;100.00
64340;BME280;63709;53.258;-8.814;2023-04-07T04:35:34;101950.56;;;7.73;100.00
64340;BME280;63709;53.258;-8.814;2023-04-07T04:38:00;101951.22;;;7.79;100.00
64340;BME280;63709;53.258;-8.814;2023-04-07T04:40:27;101960.22;;;7.95;100.00
64340;BME280;63709;53.258;-8.814;2023-04-07T04:42:52;101956.41;;;8.00;100.00
64340;BME280;63709;53.258;-8.814;2023-04-07T04:45:18;101934.00;;;7.87;100.00
64340;BME280;63709;53.258;-8.814;2023-04-07T04:47:44;101952.41;;;7.92;100.00
64340;BME280;63709;53.258;-8.814;2023-04-07T04:50:09;101938.72;;;7.81;100.00
64340;BME280;63709;53.258;-8.814;2023-04-07T04:52:35;101941.47;;;7.79;100.00
64340;BME280;63709;53.258;-8.814;2023-04-07T04:55:02;101950.53;;;7.75;100.00
64340;BME280;63709;53.258;-8.814;2023-04-07T04:57:29;101948.72;;;7.75;100.00
64340;BME280;63709;53.258;-8.814;2023-04-07T04:59:56;101948.41;;;7.82;100.00
64340;BME280;63709;53.258;-8.814;2023-04-07T05:02:21;101924.81;;;7.55;100.00
64340;BME280;63709;53.258;-8.814;2023-04-07T05:04:47;101919.03;;;7.66;100.00
64340;BME280;63709;53.258;-8.814;2023-04-07T05:07:14;101924.97;;;7.71;100.00
64340;BME280;63709;53.258;-8.814;2023-04-07T05:09:41;101935.13;;;7.82;100.00
64340;BME280;63709;53.258;-8.814;2023-04-07T05:12:07;101934.00;;;7.87;100.00
64340;BME280;63709;53.258;-8.814;2023-04-07T05:14:33;101935.84;;;7.85;100.00
64340;BME280;63709;53.258;-8.814;2023-04-07T05:17:01;101924.72;;;7.77;100.00
64340;BME280;63709;53.258;-8.814;2023-04-07T05:19:26;101933.06;;;7.88;100.00
64340;BME280;63709;53.258;-8.814;2023-04-07T05:21:54;101912.97;;;7.83;100.00
64340;BME280;63709;53.258;-8.814;2023-04-07T05:24:19;101909.50;;;7.81;100.00
64340;BME280;63709;53.258;-8.814;2023-04-07T05:26:45;101921.56;;;7.88;100.00
64340;BME280;63709;53.258;-8.814;2023-04-07T05:29:11;101923.47;;;8.05;100.00
64340;BME280;63709;53.258;-8.814;2023-04-07T05:31:38;101918.06;;;8.06;100.00
64340;BME280;63709;53.258;-8.814;2023-04-07T05:34:05;101932.44;;;8.21;100.00
64340;BME280;63709;53.258;-8.814;2023-04-07T05:36:31;101919.00;;;8.24;100.00
64340;BME280;63709;53.258;-8.814;2023-04-07T05:38:58;101929.19;;;8.33;100.00
64340;BME280;63709;53.258;-8.814;2023-04-07T05:41:25;101922.22;;;8.31;100.00
64340;BME280;63709;53.258;-8.814;2023-04-07T05:43:51;101910.69;;;8.30;100.00
64340;BME280;63709;53.258;-8.814;2023-04-07T05:46:16;101910.56;;;8.33;100.00
64340;BME280;63709;53.258;-8.814;2023-04-07T05:48:42;101918.63;;;8.32;100.00
64340;BME280;63709;53.258;-8.814;2023-04-07T05:51:08;101915.13;;;8.31;100.00
64340;BME280;63709;53.258;-8.814;2023-04-07T05:53:34;101905.31;;;8.32;100.00
64340;BME280;63709;53.258;-8.814;2023-04-07T05:56:01;101921.44;;;8.47;100.00
64340;BME280;63709;53.258;-8.814;2023-04-07T05:58:27;101900.38;;;8.43;100.00
64340;BME280;63709;53.258;-8.814;2023-04-07T06:00:53;101888.28;;;8.36;100.00
64340;BME280;63709;53.258;-8.814;2023-04-07T06:03:18;101905.03;;;8.57;100.00
64340;BME280;63709;53.258;-8.814;2023-04-07T06:05:48;101919.69;;;8.65;100.00
64340;BME280;63709;53.258;-8.814;2023-04-07T06:08:14;101923.38;;;8.80;100.00
64340;BME280;63709;53.258;-8.814;2023-04-07T06:10:41;101907.66;;;8.76;100.00
64340;BME280;63709;53.258;-8.814;2023-04-07T06:13:08;101914.78;;;8.92;100.00
64340;BME280;63709;53.258;-8.814;2023-04-07T06:15:34;101918.16;;;8.96;100.00
64340;BME280;63709;53.258;-8.814;2023-04-07T06:17:59;101915.25;;;9.01;100.00
64340;BME280;63709;53.258;-8.814;2023-04-07T06:20:26;101918.16;;;9.13;100.00
64340;BME280;63709;53.258;-8.814;2023-04-07T06:22:53;101901.16;;;9.16;100.00
64340;BME280;63709;53.258;-8.814;2023-04-07T06:25:19;101887.84;;;9.16;100.00
64340;BME280;63709;53.258;-8.814;2023-04-07T06:27:45;101886.56;;;9.23;100.00
64340;BME280;63709;53.258;-8.814;2023-04-07T06:30:11;101887.50;;;9.22;100.00
64340;BME280;63709;53.258;-8.814;2023-04-07T06:32:37;101910.63;;;9.39;100.00
64340;BME280;63709;53.258;-8.814;2023-04-07T06:35:03;101917.50;;;9.43;100.00
64340;BME280;63709;53.258;-8.814;2023-04-07T06:37:28;101902.09;;;9.32;100.00
64340;BME280;63709;53.258;-8.814;2023-04-07T06:39:54;101911.31;;;9.42;100.00
64340;BME280;63709;53.258;-8.814;2023-04-07T06:42:20;101903.78;;;9.33;100.00
64340;BME280;63709;53.258;-8.814;2023-04-07T06:44:46;101928.16;;;9.43;100.00
64340;BME280;63709;53.258;-8.814;2023-04-07T06:47:12;101899.31;;;9.34;100.00
64340;BME280;63709;53.258;-8.814;2023-04-07T06:49:38;101938.28;;;9.54;100.00
64340;BME280;63709;53.258;-8.814;2023-04-07T06:52:05;101926.81;;;9.52;100.00
64340;BME280;63709;53.258;-8.814;2023-04-07T06:54:32;101934.78;;;9.69;100.00
64340;BME280;63709;53.258;-8.814;2023-04-07T06:56:57;101935.38;;;9.74;100.00
64340;BME280;63709;53.258;-8.814;2023-04-07T06:59:23;101924.72;;;9.74;100.00
64340;BME280;63709;53.258;-8.814;2023-04-07T07:01:49;101931.28;;;9.84;100.00
64340;BME280;63709;53.258;-8.814;2023-04-07T07:04:14;101928.47;;;9.87;100.00
64340;BME280;63709;53.258;-8.814;2023-04-07T07:06:41;101901.38;;;9.79;100.00
64340;BME280;63709;53.258;-8.814;2023-04-07T07:09:07;101921.75;;;9.96;100.00
64340;BME280;63709;53.258;-8.814;2023-04-07T07:11:33;101928.66;;;10.00;100.00
64340;BME280;63709;53.258;-8.814;2023-04-07T07:13:59;101923.69;;;10.10;100.00
64340;BME280;63709;53.258;-8.814;2023-04-07T07:16:25;101926.94;;;10.15;100.00
64340;BME280;63709;53.258;-8.814;2023-04-07T07:18:53;101918.94;;;10.15;100.00
64340;BME280;63709;53.258;-8.814;2023-04-07T07:21:19;101895.63;;;10.03;100.00
64340;BME280;63709;53.258;-8.814;2023-04-07T07:23:45;101927.94;;;10.30;100.00
64340;BME280;63709;53.258;-8.814;2023-04-07T07:26:12;101933.78;;;10.36;100.00
64340;BME280;63709;53.258;-8.814;2023-04-07T07:28:38;101920.53;;;10.35;100.00
64340;BME280;63709;53.258;-8.814;2023-04-07T07:31:11;101926.75;;;10.35;100.00
64340;BME280;63709;53.258;-8.814;2023-04-07T07:33:39;101922.00;;;10.40;100.00
64340;BME280;63709;53.258;-8.814;2023-04-07T07:36:06;101912.78;;;10.30;100.00
64340;BME280;63709;53.258;-8.814;2023-04-07T07:38:32;101924.59;;;10.42;100.00
64340;BME280;63709;53.258;-8.814;2023-04-07T07:40:58;101942.06;;;10.48;100.00
64340;BME280;63709;53.258;-8.814;2023-04-07T07:43:24;101926.81;;;10.34;100.00
64340;BME280;63709;53.258;-8.814;2023-04-07T07:45:51;101938.25;;;10.52;100.00
64340;BME280;63709;53.258;-8.814;2023-04-07T07:48:16;101947.72;;;10.73;100.00
64340;BME280;63709;53.258;-8.814;2023-04-07T07:50:44;101948.31;;;10.62;100.00
64340;BME280;63709;53.258;-8.814;2023-04-07T07:53:10;101925.50;;;10.73;100.00
64340;BME280;63709;53.258;-8.814;2023-04-07T07:55:37;101909.75;;;10.68;100.00
64340;BME280;63709;53.258;-8.814;2023-04-07T07:58:03;101955.59;;;11.06;100.00
64340;BME280;63709;53.258;-8.814;2023-04-07T08:00:29;101941.19;;;11.09;100.00
64340;BME280;63709;53.258;-8.814;2023-04-07T08:02:55;101918.97;;;10.93;100.00
64340;BME280;63709;53.258;-8.814;2023-04-07T08:05:20;101953.81;;;11.21;100.00
64340;BME280;63709;53.258;-8.814;2023-04-07T08:07:46;101900.31;;;11.07;100.00
64340;BME280;63709;53.258;-8.814;2023-04-07T08:10:20;101950.94;;;11.54;100.00
64340;BME280;63709;53.258;-8.814;2023-04-07T08:12:46;101953.44;;;11.72;100.00
64340;BME280;63709;53.258;-8.814;2023-04-07T08:15:13;101954.66;;;11.66;100.00
64340;BME280;63709;53.258;-8.814;2023-04-07T08:17:38;101954.53;;;11.98;100.00
64340;BME280;63709;53.258;-8.814;2023-04-07T08:20:04;101945.13;;;12.05;100.00
64340;BME280;63709;53.258;-8.814;2023-04-07T08:22:32;101945.13;;;12.19;100.00
64340;BME280;63709;53.258;-8.814;2023-04-07T08:24:58;101900.59;;;12.04;100.00
64340;BME280;63709;53.258;-8.814;2023-04-07T08:27:24;101904.09;;;12.19;100.00
64340;BME280;63709;53.258;-8.814;2023-04-07T08:30:00;101939.88;;;12.59;100.00
64340;BME280;63709;53.258;-8.814;2023-04-07T08:32:33;101952.31;;;12.87;100.00
64340;BME280;63709;53.258;-8.814;2023-04-07T08:34:59;101920.16;;;12.87;100.00
64340;BME280;63709;53.258;-8.814;2023-04-07T08:37:25;101945.53;;;13.21;100.00
64340;BME280;63709;53.258;-8.814;2023-04-07T08:39:51;101948.22;;;13.21;100.00
64340;BME280;63709;53.258;-8.814;2023-04-07T08:42:18;101955.78;;;13.42;100.00
64340;BME280;63709;53.258;-8.814;2023-04-07T08:44:46;101936.53;;;13.22;100.00
64340;BME280;63709;53.258;-8.814;2023-04-07T08:47:14;101963.28;;;13.37;100.00
64340;BME280;63709;53.258;-8.814;2023-04-07T08:49:44;101959.44;;;13.41;100.00
64340;BME280;63709;53.258;-8.814;2023-04-07T08:52:13;101963.53;;;13.46;100.00
64340;BME280;63709;53.258;-8.814;2023-04-07T08:54:40;101965.25;;;13.60;100.00
64340;BME280;63709;53.258;-8.814;2023-04-07T08:57:07;101951.63;;;13.63;100.00
64340;BME280;63709;53.258;-8.814;2023-04-07T08:59:33;101970.41;;;13.89;100.00
64340;BME280;63709;53.258;-8.814;2023-04-07T09:01:59;101965.66;;;14.05;100.00
64340;BME280;63709;53.258;-8.814;2023-04-07T09:04:25;101918.34;;;13.91;100.00
64340;BME280;63709;53.258;-8.814;2023-04-07T09:06:51;101952.31;;;14.29;100.00
64340;BME280;63709;53.258;-8.814;2023-04-07T09:09:18;101956.78;;;14.54;100.00
64340;BME280;63709;53.258;-8.814;2023-04-07T09:11:44;101944.13;;;14.67;100.00
64340;BME280;63709;53.258;-8.814;2023-04-07T09:14:09;101947.63;;;14.81;100.00
64340;BME280;63709;53.258;-8.814;2023-04-07T09:16:35;101963.59;;;14.95;100.00
64340;BME280;63709;53.258;-8.814;2023-04-07T09:19:01;101962.50;;;14.97;100.00
64340;BME280;63709;53.258;-8.814;2023-04-07T09:21:46;101943.59;;;15.10;100.00
64340;BME280;63709;53.258;-8.814;2023-04-07T09:24:22;101958.19;;;15.19;100.00
64340;BME280;63709;53.258;-8.814;2023-04-07T09:26:47;101946.19;;;15.23;100.00
64340;BME280;63709;53.258;-8.814;2023-04-07T09:29:18;101959.72;;;15.45;100.00
64340;BME280;63709;53.258;-8.814;2023-04-07T09:31:47;101946.81;;;15.27;100.00
64340;BME280;63709;53.258;-8.814;2023-04-07T09:34:26;101941.59;;;15.36;100.00
64340;BME280;63709;53.258;-8.814;2023-04-07T09:36:52;101952.25;;;15.49;100.00
64340;BME280;63709;53.258;-8.814;2023-04-07T09:39:19;101956.63;;;15.74;100.00
64340;BME280;63709;53.258;-8.814;2023-04-07T09:41:46;101947.03;;;15.59;100.00
64340;BME280;63709;53.258;-8.814;2023-04-07T09:44:12;101961.41;;;15.82;100.00
64340;BME280;63709;53.258;-8.814;2023-04-07T09:46:55;101956.16;;;15.91;100.00
64340;BME280;63709;53.258;-8.814;2023-04-07T09:49:23;101941.66;;;15.59;100.00
64340;BME280;63709;53.258;-8.814;2023-04-07T09:52:00;101948.34;;;15.53;100.00
64340;BME280;63709;53.258;-8.814;2023-04-07T09:54:34;101947.41;;;15.54;100.00
64340;BME280;63709;53.258;-8.814;2023-04-07T09:57:01;101931.84;;;15.35;100.00
64340;BME280;63709;53.258;-8.814;2023-04-07T09:59:30;101954.53;;;15.31;100.00
64340;BME280;63709;53.258;-8.814;2023-04-07T10:01:57;101953.81;;;15.29;100.00
64340;BME280;63709;53.258;-8.814;2023-04-07T10:04:23;101954.03;;;15.26;100.00
64340;BME280;63709;53.258;-8.814;2023-04-07T10:06:49;101889.16;;;14.95;100.00
64340;BME280;63709;53.258;-8.814;2023-04-07T10:09:15;101945.75;;;15.29;100.00
64340;BME280;63709;53.258;-8.814;2023-04-07T10:11:43;101907.91;;;15.08;100.00
64340;BME280;63709;53.258;-8.814;2023-04-07T10:14:09;101923.47;;;15.27;100.00
64340;BME280;63709;53.258;-8.814;2023-04-07T10:16:41;101945.19;;;15.59;100.00
64340;BME280;63709;53.258;-8.814;2023-04-07T10:19:07;101928.06;;;15.60;100.00
64340;BME280;63709;53.258;-8.814;2023-04-07T10:21:39;101938.78;;;15.84;100.00
64340;BME280;63709;53.258;-8.814;2023-04-07T10:27:04;101949.31;;;15.99;100.00
64340;BME280;63709;53.258;-8.814;2023-04-07T10:29:36;101932.53;;;15.95;100.00
64340;BME280;63709;53.258;-8.814;2023-04-07T10:32:04;101941.94;;;16.01;100.00
64340;BME280;63709;53.258;-8.814;2023-04-07T10:37:17;101942.19;;;15.86;100.00
64340;BME280;63709;53.258;-8.814;2023-04-07T10:39:45;101941.94;;;16.01;100.00
64340;BME280;63709;53.258;-8.814;2023-04-07T10:45:07;101924.56;;;16.05;100.00
64340;BME280;63709;53.258;-8.814;2023-04-07T10:50:29;101936.53;;;16.34;100.00
64340;BME280;63709;53.258;-8.814;2023-04-07T10:53:09;101937.91;;;16.29;100.00
64340;BME280;63709;53.258;-8.814;2023-04-07T11:01:14;101933.97;;;16.33;100.00
64340;BME280;63709;53.258;-8.814;2023-04-07T11:03:31;101939.97;;;16.36;100.00
64340;BME280;63709;53.258;-8.814;2023-04-07T11:06:05;101931.66;;;16.28;100.00
64340;BME280;63709;53.258;-8.814;2023-04-07T11:08:41;101938.28;;;16.24;100.00
64340;BME280;63709;53.258;-8.814;2023-04-07T11:11:08;101913.41;;;15.98;100.00
64340;BME280;63709;53.258;-8.814;2023-04-07T11:13:41;101936.94;;;16.18;100.00
64340;BME280;63709;53.258;-8.814;2023-04-07T11:16:09;101911.00;;;15.95;93.81
64340;BME280;63709;53.258;-8.814;2023-04-07T11:18:36;101927.63;;;16.11;100.00
64340;BME280;63709;53.258;-8.814;2023-04-07T11:21:04;101899.69;;;16.12;100.00
64340;BME280;63709;53.258;-8.814;2023-04-07T11:23:41;101924.53;;;16.27;100.00
64340;BME280;63709;53.258;-8.814;2023-04-07T11:26:08;101925.38;;;16.28;98.38
64340;BME280;63709;53.258;-8.814;2023-04-07T11:28:44;101921.97;;;16.26;100.00
64340;BME280;63709;53.258;-8.814;2023-04-07T11:31:23;101884.31;;;15.92;100.00
64340;BME280;63709;53.258;-8.814;2023-04-07T11:34:01;101928.22;;;16.15;100.00
64340;BME280;63709;53.258;-8.814;2023-04-07T11:36:39;101911.84;;;16.07;100.00
64340;BME280;63709;53.258;-8.814;2023-04-07T11:39:05;101891.88;;;16.20;100.00
64340;BME280;63709;53.258;-8.814;2023-04-07T11:41:32;101920.47;;;16.44;100.00
64340;BME280;63709;53.258;-8.814;2023-04-07T11:44:09;101919.66;;;16.64;100.00
64340;BME280;63709;53.258;-8.814;2023-04-07T11:47:00;101920.41;;;16.66;100.00
64340;BME280;63709;53.258;-8.814;2023-04-07T11:49:28;101910.22;;;16.70;100.00
64340;BME280;63709;53.258;-8.814;2023-04-07T11:52:02;101887.81;;;16.69;100.00
64340;BME280;63709;53.258;-8.814;2023-04-07T11:54:42;101911.81;;;16.84;98.94
64340;BME280;63709;53.258;-8.814;2023-04-07T11:57:08;101869.56;;;16.62;97.22
64340;BME280;63709;53.258;-8.814;2023-04-07T11:59:38;101892.34;;;17.01;98.93
64340;BME280;63709;53.258;-8.814;2023-04-07T12:02:04;101896.88;;;17.01;95.57
64340;BME280;63709;53.258;-8.814;2023-04-07T12:04:36;101891.88;;;16.96;92.80
64340;BME280;63709;53.258;-8.814;2023-04-07T12:07:10;101898.78;;;16.89;91.42
64340;BME280;63709;53.258;-8.814;2023-04-07T12:09:37;101895.13;;;16.79;92.27
64340;BME280;63709;53.258;-8.814;2023-04-07T12:12:04;101879.69;;;16.81;96.84
64340;BME280;63709;53.258;-8.814;2023-04-07T12:14:33;101892.72;;;16.97;99.21
64340;BME280;63709;53.258;-8.814;2023-04-07T12:16:59;101871.59;;;16.81;97.33
64340;BME280;63709;53.258;-8.814;2023-04-07T12:19:28;101872.66;;;16.89;99.60
64340;BME280;63709;53.258;-8.814;2023-04-07T12:21:55;101874.25;;;16.92;87.75
64340;BME280;63709;53.258;-8.814;2023-04-07T12:24:21;101850.38;;;16.87;89.44
64340;BME280;63709;53.258;-8.814;2023-04-07T12:26:49;101894.91;;;17.03;85.75
64340;BME280;63709;53.258;-8.814;2023-04-07T12:29:16;101871.34;;;16.84;79.75
64340;BME280;63709;53.258;-8.814;2023-04-07T12:31:44;101892.59;;;16.98;82.39
64340;BME280;63709;53.258;-8.814;2023-04-07T12:34:14;101893.97;;;16.92;87.93
64340;BME280;63709;53.258;-8.814;2023-04-07T12:36:40;101889.94;;;16.87;88.74
64340;BME280;63709;53.258;-8.814;2023-04-07T12:39:07;101874.34;;;16.90;92.12
64340;BME280;63709;53.258;-8.814;2023-04-07T12:41:34;101880.88;;;16.88;90.14
64340;BME280;63709;53.258;-8.814;2023-04-07T12:44:00;101883.34;;;16.91;92.61
64340;BME280;63709;53.258;-8.814;2023-04-07T12:46:27;101878.78;;;17.12;99.23
64340;BME280;63709;53.258;-8.814;2023-04-07T12:48:56;101869.50;;;17.47;95.43
64340;BME280;63709;53.258;-8.814;2023-04-07T12:51:23;101859.44;;;17.89;86.73
64340;BME280;63709;53.258;-8.814;2023-04-07T12:53:50;101816.28;;;18.09;86.16
64340;BME280;63709;53.258;-8.814;2023-04-07T12:56:17;101848.34;;;18.52;76.95
64340;BME280;63709;53.258;-8.814;2023-04-07T12:58:42;101858.03;;;18.55;75.85
64340;BME280;63709;53.258;-8.814;2023-04-07T13:01:08;101851.78;;;18.93;78.67
64340;BME280;63709;53.258;-8.814;2023-04-07T13:03:35;101837.72;;;19.27;71.72
64340;BME280;63709;53.258;-8.814;2023-04-07T13:06:01;101831.50;;;19.64;64.95